createdAt,value
2023-03-19T00:00:28.725Z,9.90
2023-03-19T00:02:58.490Z,9.90
2023-03-19T00:05:25.497Z,9.80
2023-03-19T00:07:52.408Z,9.80
2023-03-19T00:10:19.231Z,9.80
2023-03-19T00:12:46.442Z,9.70
2023-03-19T00:15:14.647Z,9.70
2023-03-19T00:17:44.934Z,9.60
2023-03-19T00:20:15.165Z,9.60
2023-03-19T00:22:42.540Z,9.60
2023-03-19T00:25:10.074Z,9.60
2023-03-19T00:27:38.061Z,9.50
2023-03-19T00:30:06.884Z,9.50
2023-03-19T00:32:34.179Z,9.50
2023-03-19T00:35:01.488Z,9.40
2023-03-19T00:37:28.635Z,9.40
2023-03-19T00:39:56.124Z,9.40
2023-03-19T00:42:23.339Z,9.50
2023-03-19T00:44:50.331Z,9.50
2023-03-19T00:47:17.329Z,9.50
2023-03-19T00:49:44.604Z,9.50
2023-03-19T00:52:11.475Z,9.60
2023-03-19T00:54:38.365Z,9.60
2023-03-19T00:57:05.700Z,9.60
2023-03-19T00:59:32.499Z,9.70
2023-03-19T01:01:59.406Z,9.70
2023-03-19T01:04:26.301Z,9.70
2023-03-19T01:06:53.198Z,9.70
2023-03-19T01:09:20.186Z,9.80
2023-03-19T01:11:47.020Z,9.80
2023-03-19T01:14:17.131Z,9.80
2023-03-19T01:16:44.103Z,9.80
2023-03-19T01:19:12.374Z,9.80
2023-03-19T01:21:39.333Z,9.80
2023-03-19T01:24:06.286Z,9.80
2023-03-19T01:26:33.126Z,9.90
2023-03-19T01:29:00.104Z,9.90
2023-03-19T01:31:27.124Z,9.90
2023-03-19T01:33:53.975Z,9.90
2023-03-19T01:36:21.390Z,9.90
2023-03-19T01:38:48.437Z,9.90
2023-03-19T01:41:16.094Z,9.90
2023-03-19T01:43:43.057Z,10.00
2023-03-19T01:46:34.750Z,10.00
2023-03-19T01:49:06.294Z,10.00
2023-03-19T01:51:39.490Z,10.00
2023-03-19T01:54:10.528Z,10.00
2023-03-19T01:56:39.870Z,10.00
2023-03-19T01:59:14.860Z,10.10
2023-03-19T02:02:07.857Z,10.10
2023-03-19T02:04:36.519Z,10.00
2023-03-19T02:07:04.640Z,10.10
2023-03-19T02:09:32.276Z,10.10
2023-03-19T02:12:00.792Z,10.00
2023-03-19T02:14:28.125Z,10.00
2023-03-19T02:16:55.840Z,10.00
2023-03-19T02:19:32.122Z,10.00
2023-03-19T02:22:01.464Z,10.00
2023-03-19T02:24:39.117Z,9.90
2023-03-19T02:27:09.398Z,9.90
2023-03-19T02:29:36.419Z,9.80
2023-03-19T02:32:03.769Z,9.80
2023-03-19T02:34:36.861Z,9.80
2023-03-19T02:37:17.684Z,9.70
2023-03-19T02:39:51.835Z,9.70
2023-03-19T02:42:21.677Z,9.70
2023-03-19T02:44:48.805Z,9.60
2023-03-19T02:47:16.232Z,9.60
2023-03-19T02:49:43.309Z,9.60
2023-03-19T02:52:10.266Z,9.50
2023-03-19T02:54:37.119Z,9.50
2023-03-19T02:57:04.459Z,9.50
2023-03-19T02:59:31.538Z,9.50
2023-03-19T03:01:58.418Z,9.40
2023-03-19T03:04:26.378Z,9.40
2023-03-19T03:06:53.223Z,9.40
2023-03-19T03:09:20.627Z,9.40
2023-03-19T03:11:47.837Z,9.40
2023-03-19T03:14:14.645Z,9.50
2023-03-19T03:16:41.848Z,9.50
2023-03-19T03:19:08.898Z,9.50
2023-03-19T03:21:36.210Z,9.60
2023-03-19T03:24:03.269Z,9.60
2023-03-19T03:26:30.100Z,9.60
2023-03-19T03:28:56.906Z,9.60
2023-03-19T03:31:23.766Z,9.60
2023-03-19T03:33:50.652Z,9.60
2023-03-19T03:36:17.684Z,9.60
2023-03-19T03:38:46.030Z,9.60
2023-03-19T03:41:12.910Z,9.70
2023-03-19T03:43:41.073Z,9.70
2023-03-19T03:46:08.771Z,9.70
2023-03-19T03:48:35.843Z,9.70
2023-03-19T03:51:03.314Z,9.70
2023-03-19T03:53:30.485Z,9.70
2023-03-19T03:55:57.300Z,9.70
2023-03-19T03:58:24.150Z,9.70
2023-03-19T04:00:51.537Z,9.60
2023-03-19T04:03:19.547Z,9.70
2023-03-19T04:05:46.455Z,9.60
2023-03-19T04:08:13.850Z,9.60
2023-03-19T04:10:42.521Z,9.60
2023-03-19T04:13:10.196Z,9.60
2023-03-19T04:15:37.244Z,9.60
2023-03-19T04:18:04.222Z,9.60
2023-03-19T04:20:31.528Z,9.60
2023-03-19T04:22:58.643Z,9.60
2023-03-19T04:25:26.019Z,9.60
2023-03-19T04:27:52.974Z,9.60
2023-03-19T04:30:20.564Z,9.60
2023-03-19T04:32:47.691Z,9.60
2023-03-19T04:35:14.727Z,9.60
2023-03-19T04:37:43.500Z,9.60
2023-03-19T04:40:11.070Z,9.70
2023-03-19T04:42:37.892Z,9.70
2023-03-19T04:45:05.451Z,9.70
2023-03-19T04:47:32.245Z,9.70
2023-03-19T04:49:59.031Z,9.70
2023-03-19T04:52:26.128Z,9.70
2023-03-19T04:54:52.953Z,9.80
2023-03-19T04:57:19.978Z,9.80
2023-03-19T04:59:46.880Z,9.80
2023-03-19T05:02:13.790Z,9.80
2023-03-19T05:04:41.105Z,9.80
2023-03-19T05:07:08.050Z,9.70
2023-03-19T05:09:34.965Z,9.70
2023-03-19T05:12:01.867Z,9.70
2023-03-19T05:14:28.798Z,9.60
2023-03-19T05:16:55.583Z,9.60
2023-03-19T05:19:22.818Z,9.70
2023-03-19T05:21:49.937Z,9.70
2023-03-19T05:24:16.771Z,9.60
2023-03-19T05:26:43.691Z,9.60
2023-03-19T05:29:11.282Z,9.60
2023-03-19T05:31:38.676Z,9.60
2023-03-19T05:34:05.678Z,9.60
2023-03-19T05:36:32.645Z,9.50
2023-03-19T05:38:59.627Z,9.60
2023-03-19T05:41:26.973Z,9.50
2023-03-19T05:43:53.824Z,9.50
2023-03-19T05:46:20.683Z,9.50
2023-03-19T05:48:47.798Z,9.50
2023-03-19T05:51:14.810Z,9.50
2023-03-19T05:53:41.707Z,9.50
2023-03-19T05:56:10.125Z,9.50
2023-03-19T05:58:36.959Z,9.50
2023-03-19T06:01:03.888Z,9.50
2023-03-19T06:03:30.849Z,9.60
2023-03-19T06:05:57.889Z,9.60
2023-03-19T06:08:24.804Z,9.60
2023-03-19T06:10:53.153Z,9.60
2023-03-19T06:13:20.115Z,9.60
2023-03-19T06:15:49.172Z,9.60
2023-03-19T06:18:16.965Z,9.60
2023-03-19T06:20:43.885Z,9.60
2023-03-19T06:23:10.812Z,9.60
2023-03-19T06:25:37.732Z,9.70
2023-03-19T06:28:05.898Z,9.70
2023-03-19T06:30:34.303Z,9.70
2023-03-19T06:33:01.718Z,9.70
2023-03-19T06:35:28.605Z,9.80
2023-03-19T06:37:55.912Z,9.80
2023-03-19T06:40:22.982Z,9.90
2023-03-19T06:42:49.881Z,9.90
2023-03-19T06:45:18.970Z,10.00
2023-03-19T06:47:47.350Z,10.00
2023-03-19T06:50:16.445Z,10.10
2023-03-19T06:52:44.889Z,10.10
2023-03-19T06:55:12.675Z,10.20
2023-03-19T06:57:39.784Z,10.20
2023-03-19T07:00:10.435Z,10.30
2023-03-19T07:02:37.554Z,10.30
2023-03-19T07:05:05.467Z,10.40
2023-03-19T07:07:32.493Z,10.40
2023-03-19T07:09:59.471Z,10.40
2023-03-19T07:12:28.985Z,10.50
2023-03-19T07:14:56.607Z,10.50
2023-03-19T07:17:24.643Z,10.60
2023-03-19T07:19:52.090Z,10.70
2023-03-19T07:22:19.201Z,10.80
2023-03-19T07:24:46.135Z,10.90
2023-03-19T07:27:13.119Z,11.00
2023-03-19T07:29:40.174Z,11.00
2023-03-19T07:32:12.829Z,11.00
2023-03-19T07:34:39.796Z,11.10
2023-03-19T07:37:06.754Z,11.10
2023-03-19T07:39:34.191Z,11.10
2023-03-19T07:42:01.039Z,11.20
2023-03-19T07:44:27.848Z,11.20
2023-03-19T07:46:54.685Z,11.20
2023-03-19T07:49:22.251Z,11.20
2023-03-19T07:51:49.428Z,11.20
2023-03-19T07:54:16.348Z,11.30
2023-03-19T07:56:43.293Z,11.40
2023-03-19T07:59:11.195Z,11.40
2023-03-19T08:01:38.019Z,11.50
2023-03-19T08:04:05.193Z,11.60
2023-03-19T08:06:32.079Z,11.80
2023-03-19T08:08:58.927Z,12.00
2023-03-19T08:11:26.110Z,12.10
2023-03-19T08:13:52.939Z,12.30
2023-03-19T08:16:19.923Z,12.50
2023-03-19T08:18:52.381Z,12.60
2023-03-19T08:21:19.341Z,12.70
2023-03-19T08:23:46.329Z,12.70
2023-03-19T08:26:13.190Z,12.80
2023-03-19T08:28:40.143Z,12.90
2023-03-19T08:31:12.584Z,13.00
2023-03-19T08:33:41.820Z,13.00
2023-03-19T08:36:14.095Z,13.00
2023-03-19T08:38:41.643Z,13.10
2023-03-19T08:41:09.407Z,13.10
2023-03-19T08:43:37.933Z,13.10
2023-03-19T08:46:05.732Z,13.10
2023-03-19T08:48:32.694Z,13.00
2023-03-19T08:51:02.588Z,13.00
2023-03-19T08:53:30.769Z,13.00
2023-03-19T08:56:00.734Z,12.90
2023-03-19T08:58:28.355Z,12.90
2023-03-19T09:01:05.903Z,12.90
2023-03-19T09:03:33.278Z,12.80
2023-03-19T09:06:02.326Z,12.80
2023-03-19T09:08:30.971Z,12.90
2023-03-19T09:10:58.341Z,12.90
2023-03-19T09:13:26.108Z,13.00
2023-03-19T09:15:53.338Z,13.00
2023-03-19T09:18:29.416Z,13.20
2023-03-19T09:20:56.334Z,13.60
2023-03-19T09:23:23.732Z,13.80
2023-03-19T09:25:51.338Z,14.00
2023-03-19T09:28:19.211Z,15.20
2023-03-19T09:30:47.942Z,16.50
2023-03-19T09:33:19.488Z,18.20
2023-03-19T09:35:52.708Z,19.70
2023-03-19T09:38:25.030Z,21.00
2023-03-19T09:41:23.958Z,21.10
2023-03-19T09:44:04.506Z,20.40
2023-03-19T09:46:54.534Z,19.20
2023-03-19T09:49:30.349Z,17.80
2023-03-19T09:52:18.038Z,16.70
2023-03-19T09:54:54.923Z,15.80
2023-03-19T09:57:22.350Z,15.10
2023-03-19T09:59:49.737Z,14.60
2023-03-19T10:02:43.240Z,14.30
2023-03-19T10:05:22.684Z,14.00
2023-03-19T10:08:04.651Z,13.90
2023-03-19T10:10:38.489Z,13.80
2023-03-19T10:13:14.153Z,14.30
2023-03-19T10:15:44.311Z,14.80
2023-03-19T10:18:28.271Z,15.10
2023-03-19T10:21:09.044Z,15.10
2023-03-19T10:23:52.930Z,15.00
2023-03-19T10:26:21.769Z,15.20
2023-03-19T10:29:02.278Z,16.10
2023-03-19T10:31:40.967Z,16.70
2023-03-19T10:34:34.878Z,16.70
2023-03-19T10:37:27.179Z,16.70
2023-03-19T10:39:59.437Z,16.70
2023-03-19T10:42:42.524Z,16.80
2023-03-19T10:45:25.123Z,17.00
2023-03-19T10:47:53.040Z,17.10
2023-03-19T10:50:42.921Z,17.00
2023-03-19T10:53:15.832Z,16.90
2023-03-19T10:55:55.643Z,16.90
2023-03-19T10:58:27.902Z,16.80
2023-03-19T11:01:04.090Z,16.60
2023-03-19T11:04:10.575Z,16.60
2023-03-19T11:06:39.431Z,16.60
2023-03-19T11:09:09.033Z,16.80
2023-03-19T11:11:42.604Z,17.10
2023-03-19T11:14:18.434Z,17.60
2023-03-19T11:17:18.653Z,18.50
2023-03-19T11:19:52.530Z,19.10
2023-03-19T11:22:29.900Z,19.30
2023-03-19T11:25:01.081Z,20.00
2023-03-19T11:27:36.258Z,20.50
2023-03-19T11:30:13.170Z,20.60
2023-03-19T11:32:40.143Z,20.60
2023-03-19T11:35:20.605Z,20.30
2023-03-19T11:38:05.092Z,19.90
2023-03-19T11:40:46.056Z,19.40
2023-03-19T11:43:38.346Z,18.80
2023-03-19T11:46:26.876Z,18.60
2023-03-19T11:48:59.748Z,18.90
2023-03-19T11:51:36.270Z,19.10
2023-03-19T11:54:43.633Z,20.10
2023-03-19T11:57:29.117Z,21.60
2023-03-19T12:00:20.893Z,23.50
2023-03-19T12:03:13.155Z,25.10
2023-03-19T12:06:05.539Z,25.40
2023-03-19T12:08:50.730Z,25.60
2023-03-19T12:11:41.753Z,26.40
2023-03-19T12:14:26.701Z,27.10
2023-03-19T12:17:22.264Z,27.50
2023-03-19T12:20:02.558Z,28.00
2023-03-19T12:22:46.426Z,28.30
2023-03-19T12:25:32.604Z,28.60
2023-03-19T12:28:13.460Z,28.70
2023-03-19T12:30:54.586Z,28.50
2023-03-19T12:33:47.046Z,28.60
2023-03-19T12:36:32.124Z,28.30
2023-03-19T12:39:05.375Z,28.20
2023-03-19T12:41:36.485Z,28.00
2023-03-19T12:44:19.932Z,28.30
2023-03-19T12:46:58.565Z,28.70
2023-03-19T12:49:44.642Z,29.00
2023-03-19T12:52:41.832Z,28.60
2023-03-19T12:55:22.417Z,28.10
2023-03-19T12:57:51.847Z,27.90
2023-03-19T13:00:26.370Z,27.70
2023-03-19T13:03:22.461Z,27.30
2023-03-19T13:06:10.276Z,27.40
2023-03-19T13:08:49.779Z,27.70
2023-03-19T13:11:39.608Z,28.10
2023-03-19T13:14:22.633Z,28.40
2023-03-19T13:16:55.388Z,28.60
2023-03-19T13:19:31.996Z,28.30
2023-03-19T13:22:04.667Z,28.20
2023-03-19T13:24:37.056Z,28.30
2023-03-19T13:27:06.635Z,28.50
2023-03-19T13:29:36.907Z,28.20
2023-03-19T13:32:36.518Z,27.40
2023-03-19T13:35:27.279Z,27.10
2023-03-19T13:38:22.675Z,27.10
2023-03-19T13:40:49.570Z,26.90
2023-03-19T13:43:29.222Z,26.20
2023-03-19T13:46:05.965Z,25.40
2023-03-19T13:48:33.227Z,25.30
2023-03-19T13:51:05.672Z,25.70
2023-03-19T13:53:32.530Z,26.20
2023-03-19T13:56:22.530Z,26.40
2023-03-19T13:59:16.791Z,26.20
2023-03-19T14:01:45.203Z,25.20
2023-03-19T14:04:29.294Z,24.20
2023-03-19T14:06:59.352Z,24.00
2023-03-19T14:09:32.606Z,24.10
2023-03-19T14:12:15.918Z,23.90
2023-03-19T14:14:46.930Z,23.40
2023-03-19T14:17:22.584Z,22.80
2023-03-19T14:19:52.293Z,22.30
2023-03-19T14:22:33.003Z,21.60
2023-03-19T14:25:05.954Z,21.20
2023-03-19T14:27:33.709Z,20.90
2023-03-19T14:30:09.912Z,20.70
2023-03-19T14:32:42.762Z,20.50
2023-03-19T14:35:16.679Z,20.30
2023-03-19T14:37:49.451Z,19.90
2023-03-19T14:40:20.934Z,19.50
2023-03-19T14:43:05.283Z,19.10
2023-03-19T14:45:42.382Z,18.80
2023-03-19T14:48:09.449Z,18.70
2023-03-19T14:50:54.030Z,18.60
2023-03-19T14:53:36.338Z,18.60
2023-03-19T14:56:19.229Z,18.40
2023-03-19T14:58:56.978Z,18.30
2023-03-19T15:01:27.084Z,18.20
2023-03-19T15:04:07.866Z,18.10
2023-03-19T15:06:38.781Z,17.90
2023-03-19T15:09:31.659Z,17.70
2023-03-19T15:12:33.758Z,17.60
2023-03-19T15:15:15.572Z,17.70
2023-03-19T15:17:47.090Z,17.60
2023-03-19T15:20:23.580Z,17.50
2023-03-19T15:23:05.797Z,17.40
2023-03-19T15:25:49.468Z,17.30
2023-03-19T15:28:19.582Z,17.00
2023-03-19T15:31:03.533Z,16.90
2023-03-19T15:33:44.068Z,16.80
2023-03-19T15:36:24.624Z,16.60
2023-03-19T15:39:00.323Z,16.50
2023-03-19T15:41:31.380Z,16.40
2023-03-19T15:44:00.393Z,16.30
2023-03-19T15:46:34.537Z,16.20
2023-03-19T15:49:21.300Z,16.00
2023-03-19T15:51:53.617Z,15.90
2023-03-19T15:54:22.184Z,15.70
2023-03-19T15:56:52.016Z,15.60
2023-03-19T15:59:21.911Z,15.40
2023-03-19T16:01:49.989Z,15.30
2023-03-19T16:04:22.068Z,15.10
2023-03-19T16:06:50.687Z,14.90
2023-03-19T16:09:36.157Z,14.70
2023-03-19T16:12:38.661Z,14.60
2023-03-19T16:15:40.611Z,14.40
2023-03-19T16:18:27.888Z,14.10
2023-03-19T16:21:08.594Z,13.90
2023-03-19T16:23:57.709Z,13.70
2023-03-19T16:26:30.730Z,13.50
2023-03-19T16:28:59.775Z,13.30
2023-03-19T16:31:32.011Z,13.20
2023-03-19T16:33:59.449Z,13.10
2023-03-19T16:36:32.390Z,13.00
2023-03-19T16:39:23.787Z,12.90
2023-03-19T16:42:29.383Z,12.90
2023-03-19T16:44:58.880Z,12.80
2023-03-19T16:47:25.769Z,12.70
2023-03-19T16:49:52.592Z,12.60
2023-03-19T16:52:23.823Z,12.50
2023-03-19T16:54:52.068Z,12.40
2023-03-19T16:57:19.699Z,12.30
2023-03-19T16:59:47.200Z,12.30
2023-03-19T17:02:17.024Z,12.20
2023-03-19T17:04:44.627Z,12.20
2023-03-19T17:07:12.281Z,12.10
2023-03-19T17:09:39.476Z,12.00
2023-03-19T17:12:13.358Z,12.00
2023-03-19T17:14:40.482Z,11.90
2023-03-19T17:17:18.938Z,11.80
2023-03-19T17:19:46.941Z,11.70
2023-03-19T17:22:14.486Z,11.70
2023-03-19T17:24:41.966Z,11.70
2023-03-19T17:27:09.842Z,11.70
2023-03-19T17:29:36.807Z,11.70
2023-03-19T17:32:06.884Z,11.60
2023-03-19T17:34:35.547Z,11.50
2023-03-19T17:37:04.095Z,11.50
2023-03-19T17:39:31.570Z,11.50
2023-03-19T17:41:59.030Z,11.40
2023-03-19T17:44:25.977Z,11.40
2023-03-19T17:46:54.628Z,11.40
2023-03-19T17:49:22.821Z,11.30
2023-03-19T17:51:52.849Z,11.30
2023-03-19T17:54:20.031Z,11.30
2023-03-19T17:56:46.934Z,11.30
2023-03-19T17:59:14.380Z,11.30
2023-03-19T18:01:47.098Z,11.20
2023-03-19T18:04:17.996Z,11.20
2023-03-19T18:06:49.989Z,11.20
2023-03-19T18:09:28.309Z,11.20
2023-03-19T18:11:55.617Z,11.10
2023-03-19T18:14:22.545Z,11.20
2023-03-19T18:16:49.730Z,11.20
2023-03-19T18:19:21.167Z,11.20
2023-03-19T18:21:48.076Z,11.10
2023-03-19T18:24:14.968Z,11.10
2023-03-19T18:26:41.888Z,11.10
2023-03-19T18:29:09.137Z,11.10
2023-03-19T18:31:37.236Z,11.10
2023-03-19T18:34:08.447Z,11.10
2023-03-19T18:36:35.725Z,11.10
2023-03-19T18:39:03.483Z,11.10
2023-03-19T18:41:30.473Z,11.10
2023-03-19T18:43:57.479Z,11.10
2023-03-19T18:46:31.041Z,11.10
2023-03-19T18:49:04.873Z,11.10
2023-03-19T18:51:31.874Z,11.10
2023-03-19T18:53:59.047Z,11.00
2023-03-19T18:56:29.636Z,11.10
2023-03-19T18:58:58.711Z,11.00
2023-03-19T19:01:27.087Z,11.10
2023-03-19T19:03:54.488Z,11.00
2023-03-19T19:06:45.954Z,11.10
2023-03-19T19:09:13.307Z,11.10
2023-03-19T19:11:41.834Z,11.10
2023-03-19T19:14:19.694Z,11.10
2023-03-19T19:16:46.967Z,11.00
2023-03-19T19:19:21.151Z,11.00
2023-03-19T19:21:48.308Z,11.10
2023-03-19T19:24:15.285Z,11.00
2023-03-19T19:26:44.474Z,11.00
2023-03-19T19:29:26.477Z,11.00
2023-03-19T19:31:54.365Z,11.00
2023-03-19T19:34:21.466Z,11.00
2023-03-19T19:36:48.370Z,10.90
2023-03-19T19:39:15.222Z,10.90
2023-03-19T19:41:43.773Z,10.90
2023-03-19T19:44:22.262Z,10.80
2023-03-19T19:46:53.391Z,10.80
2023-03-19T19:49:21.692Z,10.80
2023-03-19T19:51:48.657Z,10.80
2023-03-19T19:54:16.125Z,10.80
2023-03-19T19:56:43.073Z,10.70
2023-03-19T19:59:14.923Z,10.70
2023-03-19T20:01:41.937Z,10.70
2023-03-19T20:04:14.471Z,10.70
2023-03-19T20:06:41.780Z,10.70
2023-03-19T20:09:08.615Z,10.70
2023-03-19T20:11:35.689Z,10.70
2023-03-19T20:14:02.650Z,10.60
2023-03-19T20:16:29.597Z,10.60
2023-03-19T20:18:56.926Z,10.60
2023-03-19T20:21:23.991Z,10.60
2023-03-19T20:23:56.032Z,10.60
2023-03-19T20:26:24.939Z,10.50
2023-03-19T20:28:52.120Z,10.60
2023-03-19T20:31:28.056Z,10.50
2023-03-19T20:33:55.094Z,10.50
2023-03-19T20:36:22.265Z,10.50
2023-03-19T20:38:49.206Z,10.50
2023-03-19T20:41:20.362Z,10.40
2023-03-19T20:43:47.868Z,10.40
2023-03-19T20:46:15.841Z,10.30
2023-03-19T20:48:42.711Z,10.20
2023-03-19T20:51:22.318Z,10.10
2023-03-19T20:53:51.239Z,10.10
2023-03-19T20:56:21.053Z,10.00
2023-03-19T20:58:48.372Z,10.00
2023-03-19T21:01:15.882Z,10.00
2023-03-19T21:03:42.776Z,10.00
2023-03-19T21:06:18.163Z,9.90
2023-03-19T21:08:48.605Z,9.90
2023-03-19T21:11:18.193Z,9.90
2023-03-19T21:13:46.442Z,9.80
2023-03-19T21:16:25.735Z,9.90
2023-03-19T21:18:53.966Z,9.90
2023-03-19T21:21:29.740Z,9.80
2023-03-19T21:24:01.175Z,9.90
2023-03-19T21:26:28.086Z,9.80
2023-03-19T21:29:05.653Z,9.80
2023-03-19T21:31:33.492Z,9.80
2023-03-19T21:34:01.294Z,9.80
2023-03-19T21:36:29.041Z,9.80
2023-03-19T21:38:56.418Z,9.80
2023-03-19T21:41:30.214Z,9.80
2023-03-19T21:44:00.679Z,9.80
2023-03-19T21:46:30.153Z,9.80
2023-03-19T21:48:58.571Z,9.80
2023-03-19T21:51:26.985Z,9.80
2023-03-19T21:53:53.925Z,9.80
2023-03-19T21:56:33.466Z,9.80
2023-03-19T21:59:03.528Z,9.70
2023-03-19T22:01:30.542Z,9.80
2023-03-19T22:03:58.351Z,9.70
2023-03-19T22:06:25.882Z,9.70
2023-03-19T22:08:54.356Z,9.70
2023-03-19T22:11:31.492Z,9.70
2023-03-19T22:14:06.503Z,9.70
2023-03-19T22:16:33.924Z,9.70
2023-03-19T22:19:01.609Z,9.70
2023-03-19T22:21:30.985Z,9.60
2023-03-19T22:23:57.989Z,9.60
2023-03-19T22:26:30.994Z,9.60
2023-03-19T22:29:01.090Z,9.60
2023-03-19T22:31:28.930Z,9.60
2023-03-19T22:33:56.533Z,9.50
2023-03-19T22:36:23.533Z,9.50
2023-03-19T22:38:51.451Z,9.50
2023-03-19T22:41:32.172Z,9.50
2023-03-19T22:44:01.296Z,9.50
2023-03-19T22:46:28.577Z,9.50
2023-03-19T22:48:55.703Z,9.50
2023-03-19T22:51:25.075Z,9.50
2023-03-19T22:53:52.152Z,9.50
2023-03-19T22:56:20.467Z,9.50
2023-03-19T22:58:48.975Z,9.40
2023-03-19T23:01:20.575Z,9.40
2023-03-19T23:03:48.889Z,9.40
2023-03-19T23:06:30.147Z,9.40
2023-03-19T23:08:57.532Z,9.30
2023-03-19T23:11:24.577Z,9.30
2023-03-19T23:13:51.762Z,9.30
2023-03-19T23:16:24.615Z,9.30
2023-03-19T23:18:52.483Z,9.30
2023-03-19T23:21:20.918Z,9.30
2023-03-19T23:23:47.739Z,9.30
2023-03-19T23:26:26.694Z,9.30
2023-03-19T23:28:56.439Z,9.30
2023-03-19T23:31:23.453Z,9.30
2023-03-19T23:33:50.223Z,9.30
2023-03-19T23:36:19.283Z,9.30
2023-03-19T23:38:46.800Z,9.30
2023-03-19T23:41:24.994Z,9.30
2023-03-19T23:43:53.229Z,9.20
2023-03-19T23:46:21.095Z,9.20
2023-03-19T23:48:48.076Z,9.20
2023-03-19T23:51:16.854Z,9.20
2023-03-19T23:53:43.943Z,9.20
2023-03-19T23:56:26.112Z,9.10
